Time;durP1;ratioP1;P1;durP2;ratioP2;P2;SDS_P1;SDS_P2;PMS_P1;PMS_P2;Temp;Humidity;BMP_temperature;BMP_pressure;BME280_temperature;BME280_humidity;BME280_pressure;Samples;Min_cycle;Max_cycle;Signal;HPM_P1;HPM_P2
2022/09/13 00:01:17;;;;;;;3.37;2.90;;;15.20;99.90;;;;;;5052057;28;20222;-64
2022/09/13 00:03:42;;;;;;;3.77;2.80;;;15.20;99.90;;;;;;5055254;28;20184;-65
2022/09/13 00:06:13;;;;;;;2.90;2.70;;;15.20;99.90;;;;;;5055721;28;20222;-65
2022/09/13 00:08:39;;;;;;;3.07;2.87;;;15.20;99.90;;;;;;5052672;28;20187;-66
2022/09/13 00:11:04;;;;;;;3.07;2.87;;;15.20;99.90;;;;;;5053580;28;20206;-63
2022/09/13 00:13:30;;;;;;;3.23;3.03;;;15.20;99.90;;;;;;5052102;28;20414;-62
2022/09/13 00:15:55;;;;;;;2.83;2.63;;;15.20;99.90;;;;;;5055510;28;20283;-60
2022/09/13 00:18:21;;;;;;;2.73;2.53;;;15.10;99.90;;;;;;5051852;28;20194;-61
2022/09/13 00:20:47;;;;;;;3.50;3.20;;;15.10;99.90;;;;;;5059098;28;20241;-62
2022/09/13 00:23:13;;;;;;;3.40;3.10;;;15.10;99.90;;;;;;5051169;28;20226;-62
2022/09/13 00:25:38;;;;;;;3.40;3.10;;;15.00;99.90;;;;;;5053219;28;20233;-61
2022/09/13 00:28:05;;;;;;;3.07;2.77;;;15.00;99.90;;;;;;5043649;28;20289;-62
2022/09/13 00:30:31;;;;;;;3.30;3.00;;;14.90;99.90;;;;;;5052100;28;20689;-67
2022/09/13 00:32:56;;;;;;;3.97;2.83;;;14.90;99.90;;;;;;5055666;28;20213;-64
2022/09/13 00:35:22;;;;;;;4.07;2.43;;;14.90;99.90;;;;;;5051377;28;20242;-65
2022/09/13 00:37:48;;;;;;;3.50;3.20;;;14.90;99.90;;;;;;5053508;28;20661;-65
2022/09/13 00:40:14;;;;;;;4.07;2.73;;;14.90;99.90;;;;;;5049512;28;20194;-65
2022/09/13 00:42:39;;;;;;;3.50;3.00;;;14.90;99.90;;;;;;5054626;28;20249;-79
2022/09/13 00:45:11;;;;;;;3.43;3.13;;;14.80;99.90;;;;;;5052436;28;20607;-63
2022/09/13 00:47:52;;;;;;;3.20;3.00;;;14.80;99.90;;;;;;5056694;28;20294;-64
2022/09/13 00:50:27;;;;;;;3.57;2.87;;;14.70;99.90;;;;;;5059439;28;20618;-62
2022/09/13 00:53:11;;;;;;;3.00;2.80;;;14.60;99.90;;;;;;5060927;28;20205;-63
2022/09/13 00:55:47;;;;;;;3.17;2.87;;;14.60;99.90;;;;;;5061110;28;20699;-63
2022/09/13 00:58:17;;;;;;;3.13;2.77;;;14.50;99.90;;;;;;5053038;28;20248;-64
2022/09/13 01:00:44;;;;;;;3.53;3.23;;;14.50;99.90;;;;;;5051624;28;20183;-63
2022/09/13 01:03:12;;;;;;;3.17;2.97;;;14.50;99.90;;;;;;5059389;28;20207;-63
2022/09/13 01:05:44;;;;;;;3.40;3.20;;;14.40;99.90;;;;;;5055365;28;20222;-63
2022/09/13 01:08:21;;;;;;;3.57;2.40;;;14.40;99.90;;;;;;5057200;28;20230;-62
2022/09/13 01:10:48;;;;;;;3.13;2.93;;;14.40;99.90;;;;;;5056780;28;20300;-62
2022/09/13 01:13:18;;;;;;;3.70;3.40;;;14.30;99.90;;;;;;5055667;28;20553;-62
2022/09/13 01:15:45;;;;;;;3.73;3.43;;;14.30;99.90;;;;;;5060727;28;20225;-63
2022/09/13 01:18:11;;;;;;;3.67;3.47;;;14.30;99.90;;;;;;5059108;28;20202;-62
2022/09/13 01:21:11;;;;;;;3.10;2.90;;;14.20;99.90;;;;;;5057024;28;20197;-62
2022/09/13 01:23:51;;;;;;;3.27;3.07;;;14.20;99.90;;;;;;5056057;28;20954;-63
2022/09/13 01:26:32;;;;;;;3.47;3.17;;;14.20;99.90;;;;;;5062387;28;20193;-63
2022/09/13 01:29:15;;;;;;;3.33;3.13;;;14.20;99.90;;;;;;5062526;28;20359;-62
2022/09/13 01:32:03;;;;;;;3.30;3.10;;;14.20;99.90;;;;;;5054586;28;20198;-62
2022/09/13 01:35:09;;;;;;;2.83;2.63;;;14.20;99.90;;;;;;5058720;28;20214;-62
2022/09/13 01:37:56;;;;;;;3.33;3.03;;;14.20;99.90;;;;;;5026849;28;20238;-62
2022/09/13 01:41:16;;;;;;;3.00;2.80;;;14.20;99.90;;;;;;5060515;28;20276;-62
2022/09/13 01:43:50;;;;;;;3.33;3.03;;;14.20;99.90;;;;;;4995293;28;20255;-62
2022/09/13 01:46:27;;;;;;;2.97;2.77;;;14.20;99.90;;;;;;5046928;28;20293;-62
2022/09/13 01:49:13;;;;;;;3.23;2.90;;;14.10;99.90;;;;;;5051126;28;20258;-63
2022/09/13 01:52:02;;;;;;;3.23;3.03;;;14.10;99.90;;;;;;5032010;28;20286;-62
2022/09/13 01:54:38;;;;;;;3.27;3.00;;;14.10;99.90;;;;;;5065485;28;20704;-62
2022/09/13 01:57:09;;;;;;;3.53;3.23;;;14.10;99.90;;;;;;5052348;28;20283;-62
2022/09/13 01:59:46;;;;;;;4.73;3.33;;;14.10;99.90;;;;;;5066402;28;20214;-62
2022/09/13 02:02:20;;;;;;;3.23;3.03;;;14.10;99.90;;;;;;5052637;28;20309;-63
2022/09/13 02:04:52;;;;;;;3.37;3.03;;;14.00;99.90;;;;;;5064001;28;20312;-62
2022/09/13 02:07:23;;;;;;;3.67;3.37;;;14.10;99.90;;;;;;5053826;28;20206;-62
2022/09/13 02:09:55;;;;;;;4.07;3.67;;;14.10;99.90;;;;;;5059841;28;20187;-63
2022/09/13 02:12:24;;;;;;;3.43;3.23;;;14.00;99.90;;;;;;5055156;28;20203;-63
2022/09/13 02:15:14;;;;;;;3.77;3.47;;;14.00;99.90;;;;;;5053467;28;20272;-63
2022/09/13 02:17:48;;;;;;;7.67;3.87;;;14.00;99.90;;;;;;5057340;28;20194;-63
2022/09/13 02:20:37;;;;;;;3.27;3.07;;;14.00;99.90;;;;;;5059802;28;20255;-63
2022/09/13 02:23:09;;;;;;;3.77;2.97;;;13.90;99.90;;;;;;5064618;28;20684;-63
2022/09/13 02:25:38;;;;;;;3.70;3.27;;;13.90;99.90;;;;;;5055760;28;20186;-63
2022/09/13 02:28:08;;;;;;;3.87;3.57;;;13.90;99.90;;;;;;5059179;28;20209;-63
2022/09/13 02:30:39;;;;;;;3.67;3.43;;;13.90;99.90;;;;;;5054171;28;20698;-63
2022/09/13 02:33:11;;;;;;;3.60;3.40;;;13.80;99.90;;;;;;5059448;28;20218;-64
2022/09/13 02:35:48;;;;;;;3.30;3.00;;;13.80;99.90;;;;;;5055249;28;20215;-64
2022/09/13 02:38:23;;;;;;;3.40;3.20;;;13.80;99.90;;;;;;5044012;28;20595;-63
2022/09/13 02:40:57;;;;;;;3.70;3.37;;;13.80;99.90;;;;;;5052272;28;20192;-63
2022/09/13 02:43:30;;;;;;;3.97;3.57;;;13.80;99.90;;;;;;5047076;28;20198;-63
2022/09/13 02:46:23;;;;;;;3.70;3.50;;;13.80;99.90;;;;;;5047736;28;21247;-63
2022/09/13 02:49:12;;;;;;;3.87;3.57;;;13.90;99.90;;;;;;5048036;28;20241;-63
2022/09/13 02:51:49;;;;;;;4.07;3.70;;;13.90;99.90;;;;;;5052879;28;20205;-63
2022/09/13 02:54:35;;;;;;;3.57;3.37;;;13.90;99.90;;;;;;5052983;28;20281;-64
2022/09/13 02:57:06;;;;;;;7.80;3.83;;;13.90;99.90;;;;;;5055719;28;20205;-64
2022/09/13 02:59:33;;;;;;;3.53;3.33;;;13.90;99.90;;;;;;5046672;28;20318;-64
2022/09/13 03:02:05;;;;;;;4.23;3.83;;;13.90;99.90;;;;;;5059609;28;20249;-64
2022/09/13 03:04:32;;;;;;;4.80;4.40;;;13.90;99.90;;;;;;5053270;28;20281;-64
2022/09/13 03:06:57;;;;;;;4.23;3.83;;;13.90;99.90;;;;;;5052883;28;20311;-64
2022/09/13 03:09:23;;;;;;;4.40;4.10;;;13.90;99.90;;;;;;5056708;28;20202;-64
2022/09/13 03:12:16;;;;;;;3.80;3.60;;;13.90;99.90;;;;;;5058276;28;20293;-64
2022/09/13 03:15:05;;;;;;;4.47;4.07;;;13.80;99.90;;;;;;5056943;28;20227;-64
2022/09/13 03:17:47;;;;;;;4.97;4.57;;;13.80;99.90;;;;;;5055286;28;20277;-64
2022/09/13 03:20:39;;;;;;;4.63;4.23;;;13.80;99.90;;;;;;5051508;28;20182;-65
2022/09/13 03:23:47;;;;;;;5.10;4.70;;;13.80;99.90;;;;;;5043784;28;20250;-64
2022/09/13 03:26:34;;;;;;;4.50;4.03;;;13.70;99.90;;;;;;5053780;28;20190;-64
2022/09/13 03:29:30;;;;;;;4.33;3.93;;;13.70;99.90;;;;;;5051098;28;20217;-70
2022/09/13 03:32:35;;;;;;;4.20;3.90;;;13.70;99.90;;;;;;5043979;28;20198;-70
2022/09/13 03:35:36;;;;;;;4.23;3.97;;;13.70;99.90;;;;;;5011011;28;20281;-65
2022/09/13 03:38:14;;;;;;;4.23;3.93;;;13.80;99.90;;;;;;5052287;28;20256;-65
2022/09/13 03:40:52;;;;;;;4.60;4.20;;;13.80;99.90;;;;;;5045799;28;20578;-65
2022/09/13 03:43:24;;;;;;;4.40;4.10;;;13.80;99.90;;;;;;5048267;28;20206;-65
2022/09/13 03:45:55;;;;;;;4.90;4.50;;;13.80;99.90;;;;;;5056566;28;20195;-64
2022/09/13 03:48:21;;;;;;;4.60;4.20;;;13.80;99.90;;;;;;5063859;28;20214;-64
2022/09/13 03:50:48;;;;;;;4.60;4.20;;;13.80;99.90;;;;;;5055997;28;20224;-64
2022/09/13 03:53:20;;;;;;;4.87;4.50;;;13.90;99.90;;;;;;5044334;28;20207;-64
2022/09/13 03:55:46;;;;;;;3.70;3.40;;;13.90;99.90;;;;;;5054576;28;20247;-64
2022/09/13 03:58:14;;;;;;;4.87;4.47;;;13.90;99.90;;;;;;5052660;28;20805;-64
2022/09/13 04:00:40;;;;;;;4.03;3.70;;;13.90;99.90;;;;;;5053645;28;20186;-64
2022/09/13 04:03:06;;;;;;;7.07;4.90;;;13.90;99.90;;;;;;5048746;28;20203;-64
2022/09/13 04:05:33;;;;;;;9.90;4.43;;;14.00;99.90;;;;;;5053610;28;20298;-65
2022/09/13 04:08:00;;;;;;;5.30;4.80;;;14.00;99.90;;;;;;5052556;28;20206;-64
2022/09/13 04:10:25;;;;;;;4.77;4.47;;;14.10;99.90;;;;;;5049709;28;20206;-63
2022/09/13 04:12:52;;;;;;;4.57;4.27;;;14.10;99.90;;;;;;5053515;28;20739;-64
2022/09/13 04:15:18;;;;;;;5.07;4.67;;;14.10;99.90;;;;;;5053580;28;20233;-63
2022/09/13 04:17:43;;;;;;;5.30;4.90;;;14.10;99.90;;;;;;5050258;28;20405;-63
2022/09/13 04:20:10;;;;;;;5.20;4.80;;;14.10;99.90;;;;;;5054102;28;20551;-64
2022/09/13 04:22:35;;;;;;;5.00;4.60;;;14.10;99.90;;;;;;5055425;28;20694;-63
2022/09/13 04:25:01;;;;;;;5.47;4.60;;;14.10;99.90;;;;;;5048743;28;20270;-63
2022/09/13 04:27:26;;;;;;;5.73;5.20;;;14.10;99.90;;;;;;5050143;28;20209;-64
2022/09/13 04:29:52;;;;;;;5.40;4.53;;;14.10;99.90;;;;;;5052931;28;20213;-66
2022/09/13 04:32:17;;;;;;;5.40;4.90;;;14.10;99.90;;;;;;5053872;28;20210;-65
2022/09/13 04:34:43;;;;;;;5.10;4.70;;;14.20;99.90;;;;;;5057301;28;20210;-65
2022/09/13 04:37:09;;;;;;;5.37;4.97;;;14.10;99.90;;;;;;5057199;28;20191;-65
2022/09/13 04:39:34;;;;;;;5.97;5.47;;;14.20;99.90;;;;;;5052827;28;20182;-65
2022/09/13 04:42:01;;;;;;;6.63;5.50;;;14.20;99.90;;;;;;5053781;28;20190;-65
2022/09/13 04:44:26;;;;;;;7.07;5.47;;;14.20;99.90;;;;;;5055454;28;20544;-65
2022/09/13 04:46:52;;;;;;;5.70;5.23;;;14.20;99.90;;;;;;5051834;28;20194;-65
2022/09/13 04:49:19;;;;;;;6.07;5.57;;;14.20;99.90;;;;;;5053579;28;20202;-65
2022/09/13 04:51:44;;;;;;;6.00;5.50;;;14.20;99.90;;;;;;5051519;28;20199;-65
2022/09/13 04:54:11;;;;;;;5.70;5.20;;;14.20;99.90;;;;;;5057875;28;20531;-65
2022/09/13 04:56:37;;;;;;;7.53;5.50;;;14.30;99.90;;;;;;5048049;28;20207;-65
2022/09/13 04:59:03;;;;;;;5.97;5.47;;;14.30;99.90;;;;;;5060776;28;20214;-66
2022/09/13 05:01:28;;;;;;;5.57;5.10;;;14.30;99.90;;;;;;5057572;28;20273;-66
2022/09/13 05:03:54;;;;;;;5.73;5.30;;;14.40;99.90;;;;;;5060094;28;20392;-65
2022/09/13 05:06:21;;;;;;;5.67;5.10;;;14.40;99.90;;;;;;5051383;28;20206;-66
2022/09/13 05:08:54;;;;;;;6.17;5.37;;;14.40;99.90;;;;;;5053355;28;20205;-66
2022/09/13 05:11:21;;;;;;;5.40;4.90;;;14.50;99.90;;;;;;5054835;28;20246;-65
2022/09/13 05:13:55;;;;;;;5.97;4.93;;;14.40;99.90;;;;;;5061219;28;20622;-71
2022/09/13 05:16:23;;;;;;;5.67;5.17;;;14.50;99.90;;;;;;5058180;28;20623;-71
2022/09/13 05:18:50;;;;;;;6.07;5.57;;;14.50;99.90;;;;;;5046798;28;20195;-67
2022/09/13 05:21:15;;;;;;;5.60;5.13;;;14.50;99.90;;;;;;5053491;28;20198;-67
2022/09/13 05:23:40;;;;;;;7.73;6.00;;;14.60;99.90;;;;;;5047542;28;20552;-63
2022/09/13 05:26:06;;;;;;;5.73;5.23;;;14.50;99.90;;;;;;5061056;28;20190;-62
2022/09/13 05:28:34;;;;;;;5.97;5.50;;;14.50;99.90;;;;;;5052233;28;20367;-62
2022/09/13 05:31:05;;;;;;;5.73;5.23;;;14.60;99.90;;;;;;5059741;28;20218;-62
2022/09/13 05:33:33;;;;;;;5.80;5.27;;;14.50;99.90;;;;;;5058360;28;20225;-63
2022/09/13 05:35:59;;;;;;;6.03;5.43;;;14.60;99.90;;;;;;5060568;28;20211;-63
2022/09/13 05:38:25;;;;;;;5.90;5.37;;;14.50;99.90;;;;;;5061267;28;20198;-63
2022/09/13 05:40:55;;;;;;;5.87;5.33;;;14.60;99.90;;;;;;5057067;28;20187;-63
2022/09/13 05:43:22;;;;;;;6.57;6.00;;;14.60;99.90;;;;;;5052896;28;20203;-63
2022/09/13 05:45:48;;;;;;;5.87;5.30;;;14.50;99.90;;;;;;5055949;28;20198;-62
2022/09/13 05:48:13;;;;;;;6.67;5.77;;;14.50;99.90;;;;;;5058481;28;20216;-63
2022/09/13 05:50:39;;;;;;;7.60;5.50;;;14.50;99.90;;;;;;5061035;28;20222;-63
2022/09/13 05:53:05;;;;;;;5.80;4.97;;;14.50;99.90;;;;;;5056671;28;20211;-62
2022/09/13 05:55:31;;;;;;;6.80;5.57;;;14.50;99.90;;;;;;5050295;28;20867;-63
2022/09/13 05:57:57;;;;;;;8.50;7.73;;;14.40;99.90;;;;;;5057064;28;20206;-63
2022/09/13 06:00:22;;;;;;;7.90;7.20;;;14.30;99.90;;;;;;5057281;28;20226;-64
2022/09/13 06:02:48;;;;;;;7.90;7.17;;;14.10;99.90;;;;;;5056362;28;20198;-64
2022/09/13 06:05:13;;;;;;;7.57;6.97;;;14.00;99.90;;;;;;5055682;28;20190;-63
2022/09/13 06:07:41;;;;;;;9.30;8.40;;;13.80;99.90;;;;;;5058870;28;20566;-63
2022/09/13 06:10:08;;;;;;;8.50;7.70;;;13.80;99.90;;;;;;5051101;28;20266;-64
2022/09/13 06:12:33;;;;;;;9.70;8.40;;;13.80;99.90;;;;;;5048723;28;20209;-62
2022/09/13 06:14:59;;;;;;;9.90;8.10;;;13.70;99.90;;;;;;5058551;28;20321;-63
2022/09/13 06:17:24;;;;;;;9.57;8.63;;;13.70;99.90;;;;;;5051913;28;20282;-63
2022/09/13 06:19:50;;;;;;;8.47;7.67;;;13.70;99.90;;;;;;5067199;28;20648;-63
2022/09/13 06:22:16;;;;;;;9.27;8.37;;;13.70;99.90;;;;;;5061864;28;20182;-63
2022/09/13 06:24:41;;;;;;;9.97;9.03;;;13.70;99.90;;;;;;5051410;28;20198;-63
2022/09/13 06:27:07;;;;;;;11.03;8.33;;;13.70;99.90;;;;;;5059945;28;20202;-63
2022/09/13 06:29:32;;;;;;;10.23;9.13;;;13.70;99.90;;;;;;5052346;28;20217;-62
2022/09/13 06:31:58;;;;;;;10.33;8.93;;;13.70;99.90;;;;;;5055735;28;20316;-62
2022/09/13 06:34:23;;;;;;;9.57;8.57;;;13.80;99.90;;;;;;5047277;28;20210;-62
2022/09/13 06:36:49;;;;;;;10.23;8.97;;;13.80;99.90;;;;;;5052937;28;20198;-63
2022/09/13 06:39:14;;;;;;;8.43;7.70;;;13.90;99.90;;;;;;5061217;28;20798;-63
2022/09/13 06:41:39;;;;;;;9.17;8.37;;;14.00;99.90;;;;;;5066159;28;20190;-62
2022/09/13 06:44:05;;;;;;;12.17;8.57;;;14.10;99.90;;;;;;5048826;28;20206;-63
2022/09/13 06:46:33;;;;;;;8.07;7.40;;;14.20;99.90;;;;;;5048339;28;20202;-63
2022/09/13 06:49:00;;;;;;;12.60;7.93;;;14.30;99.90;;;;;;5063755;28;20244;-63
2022/09/13 06:51:26;;;;;;;8.53;7.83;;;14.40;99.90;;;;;;5055108;28;20602;-63
2022/09/13 06:53:54;;;;;;;9.20;8.37;;;14.50;99.90;;;;;;5062205;28;20251;-63
2022/09/13 06:56:28;;;;;;;10.30;9.20;;;14.60;99.90;;;;;;5061205;28;20214;-63
2022/09/13 06:58:56;;;;;;;10.23;9.23;;;14.80;99.90;;;;;;5046380;28;20222;-62
2022/09/13 07:01:24;;;;;;;11.67;8.67;;;14.90;99.90;;;;;;5052359;28;20255;-62
2022/09/13 07:03:53;;;;;;;7.87;7.07;;;15.10;99.90;;;;;;5046413;28;20643;-62
2022/09/13 07:06:25;;;;;;;8.97;8.07;;;15.30;99.90;;;;;;5054932;28;20209;-63
2022/09/13 07:08:53;;;;;;;8.67;7.87;;;15.40;99.90;;;;;;5044558;28;20234;-63
2022/09/13 07:11:22;;;;;;;9.00;7.83;;;15.50;99.90;;;;;;5047351;28;20198;-62
2022/09/13 07:13:53;;;;;;;9.67;8.37;;;15.60;99.90;;;;;;5063006;28;20212;-62
2022/09/13 07:16:20;;;;;;;7.60;6.90;;;15.60;99.90;;;;;;5059868;28;20296;-62
2022/09/13 07:19:04;;;;;;;10.27;7.67;;;15.70;99.90;;;;;;5062855;28;20199;-63
2022/09/13 07:21:30;;;;;;;8.60;7.10;;;15.70;99.90;;;;;;5052731;28;20969;-63
2022/09/13 07:23:56;;;;;;;7.63;6.83;;;15.70;99.90;;;;;;5046948;28;20571;-62
2022/09/13 07:26:22;;;;;;;11.43;8.93;;;15.80;99.90;;;;;;5046935;28;20217;-63
2022/09/13 07:28:51;;;;;;;8.60;7.80;;;15.90;99.90;;;;;;5056021;28;20561;-63
2022/09/13 07:31:25;;;;;;;8.27;7.47;;;15.90;99.90;;;;;;5052045;28;20642;-63
2022/09/13 07:33:55;;;;;;;7.87;7.17;;;15.90;99.90;;;;;;5057596;28;20243;-63
2022/09/13 07:36:21;;;;;;;12.93;8.77;;;16.00;99.90;;;;;;5055311;28;20219;-62
2022/09/13 07:38:49;;;;;;;7.40;6.70;;;16.00;99.90;;;;;;5054973;28;20221;-62
2022/09/13 07:41:17;;;;;;;8.47;7.47;;;16.10;99.90;;;;;;5055037;28;20199;-62
2022/09/13 07:43:43;;;;;;;8.67;7.50;;;16.10;99.90;;;;;;5052665;28;20202;-63
2022/09/13 07:46:14;;;;;;;10.30;8.70;;;16.10;99.90;;;;;;5052339;28;20565;-69
2022/09/13 07:48:41;;;;;;;8.23;7.50;;;16.20;99.90;;;;;;5006711;28;20649;-71
2022/09/13 07:51:12;;;;;;;8.10;7.40;;;16.30;99.90;;;;;;5061399;28;20254;-69
2022/09/13 07:53:39;;;;;;;7.80;7.00;;;16.50;99.90;;;;;;5060129;28;20203;-69
2022/09/13 07:56:08;;;;;;;9.53;8.20;;;16.70;99.90;;;;;;5057674;28;20216;-69
2022/09/13 07:58:35;;;;;;;8.53;7.50;;;16.70;99.90;;;;;;5062710;28;20788;-69
2022/09/13 08:01:13;;;;;;;7.70;7.00;;;16.80;99.90;;;;;;5056858;28;20191;-77
2022/09/13 08:03:38;;;;;;;7.83;7.23;;;16.80;99.90;;;;;;5060003;28;20198;-71
2022/09/13 08:06:05;;;;;;;8.80;8.00;;;16.70;99.90;;;;;;5063103;28;20207;-77
2022/09/13 08:08:31;;;;;;;7.43;6.73;;;16.50;99.90;;;;;;5052028;28;20197;-82
2022/09/13 08:10:58;;;;;;;10.80;7.97;;;16.60;99.90;;;;;;5056396;28;20278;-70
2022/09/13 08:13:23;;;;;;;13.67;8.07;;;16.60;99.90;;;;;;5053647;28;20210;-67
2022/09/13 08:15:49;;;;;;;8.03;7.33;;;16.70;99.90;;;;;;5063740;28;20204;-67
2022/09/13 08:18:16;;;;;;;9.10;8.10;;;16.80;99.90;;;;;;5051564;28;20195;-67
2022/09/13 08:20:42;;;;;;;8.67;7.87;;;16.90;99.90;;;;;;5058123;28;20180;-67
2022/09/13 08:23:09;;;;;;;11.10;7.40;;;17.00;99.90;;;;;;5049122;28;20253;-69
2022/09/13 08:25:35;;;;;;;7.33;6.63;;;17.00;99.90;;;;;;5053191;28;20185;-68
2022/09/13 08:28:05;;;;;;;8.80;8.00;;;17.00;99.90;;;;;;5050874;28;20302;-69
2022/09/13 08:30:32;;;;;;;8.43;7.63;;;16.90;99.90;;;;;;5056587;28;20244;-69
2022/09/13 08:32:59;;;;;;;7.67;6.83;;;16.90;99.90;;;;;;5051325;28;20219;-69
2022/09/13 08:35:25;;;;;;;7.73;6.87;;;17.10;99.90;;;;;;5058843;28;20246;-70
2022/09/13 08:37:50;;;;;;;8.00;7.30;;;17.10;99.90;;;;;;5056947;28;20346;-69
2022/09/13 08:40:16;;;;;;;8.33;7.53;;;17.10;99.90;;;;;;5053602;28;20174;-67
2022/09/13 08:42:55;;;;;;;8.67;7.03;;;17.20;99.90;;;;;;5054676;28;20204;-69
2022/09/13 08:45:22;;;;;;;7.47;6.83;;;17.30;99.90;;;;;;5051036;28;20517;-67
2022/09/13 08:47:53;;;;;;;8.63;7.83;;;17.30;99.90;;;;;;4970828;28;20215;-67
2022/09/13 08:50:25;;;;;;;8.73;7.93;;;17.30;99.90;;;;;;5065672;28;20185;-69
2022/09/13 08:53:16;;;;;;;8.67;7.37;;;17.40;99.90;;;;;;5052811;28;20785;-67
2022/09/13 08:55:53;;;;;;;8.03;7.33;;;17.50;99.90;;;;;;5053520;28;20206;-71
2022/09/13 08:58:32;;;;;;;8.80;7.33;;;17.70;99.90;;;;;;5053004;28;20275;-70
2022/09/13 09:01:26;;;;;;;8.47;7.67;;;17.70;99.90;;;;;;5044348;28;20269;-74
2022/09/13 09:04:08;;;;;;;7.20;6.60;;;17.80;99.90;;;;;;4990778;28;20344;-68
2022/09/13 09:06:35;;;;;;;7.00;6.30;;;17.80;99.90;;;;;;5059870;28;20195;-68
2022/09/13 09:09:07;;;;;;;7.77;7.03;;;17.80;99.90;;;;;;5052001;28;20209;-68
2022/09/13 09:11:43;;;;;;;8.13;7.43;;;17.80;99.90;;;;;;5052159;28;20208;-68
2022/09/13 09:14:26;;;;;;;7.07;6.57;;;17.80;99.90;;;;;;5058822;28;20234;-68
2022/09/13 09:16:57;;;;;;;8.07;7.27;;;17.80;99.90;;;;;;5053120;28;20199;-71
2022/09/13 09:19:39;;;;;;;7.87;7.07;;;18.00;99.90;;;;;;5045110;28;20689;-68
2022/09/13 09:22:26;;;;;;;7.70;6.83;;;18.20;99.90;;;;;;5059973;28;20607;-68
2022/09/13 09:24:56;;;;;;;6.37;5.80;;;18.40;99.90;;;;;;5053628;28;20212;-68
2022/09/13 09:27:22;;;;;;;7.57;6.67;;;18.50;99.90;;;;;;5064803;28;20200;-68
2022/09/13 09:29:52;;;;;;;7.33;6.67;;;18.70;99.90;;;;;;5051257;28;20282;-69
2022/09/13 09:32:39;;;;;;;6.97;6.27;;;18.70;99.90;;;;;;5051340;28;20232;-68
2022/09/13 09:35:36;;;;;;;7.37;6.30;;;18.70;99.90;;;;;;5057028;28;20811;-68
2022/09/13 09:38:27;;;;;;;9.83;7.03;;;18.80;99.90;;;;;;5055926;28;20254;-69
2022/09/13 09:40:52;;;;;;;6.67;6.07;;;19.00;99.90;;;;;;5058114;28;20178;-67
2022/09/13 09:43:32;;;;;;;6.37;5.77;;;19.10;99.90;;;;;;5055344;28;20199;-68
2022/09/13 09:46:01;;;;;;;7.20;6.50;;;19.30;99.90;;;;;;5055374;28;20647;-69
2022/09/13 09:48:31;;;;;;;6.70;6.07;;;19.40;99.90;;;;;;5051712;28;20206;-69
2022/09/13 09:50:58;;;;;;;6.57;6.07;;;19.50;99.90;;;;;;5053236;28;20184;-70
2022/09/13 09:53:32;;;;;;;7.90;5.83;;;19.70;99.90;;;;;;5053503;28;20204;-70
2022/09/13 09:56:17;;;;;;;6.47;5.87;;;19.80;99.90;;;;;;5051053;28;20210;-69
2022/09/13 09:58:45;;;;;;;7.13;6.43;;;19.70;99.90;;;;;;5059117;28;20707;-71
2022/09/13 10:01:28;;;;;;;6.50;5.90;;;19.90;99.90;;;;;;5051513;28;20192;-70
2022/09/13 10:04:09;;;;;;;5.70;5.20;;;20.10;99.90;;;;;;5053779;28;20204;-69
2022/09/13 10:06:37;;;;;;;6.50;5.80;;;20.30;99.90;;;;;;5059526;28;20193;-69
2022/09/13 10:09:17;;;;;;;6.70;6.10;;;20.50;99.90;;;;;;5056106;28;20289;-78
2022/09/13 10:11:52;;;;;;;7.57;6.87;;;20.70;99.90;;;;;;5063853;28;20224;-78
2022/09/13 10:14:38;;;;;;;6.17;5.67;;;20.70;99.90;;;;;;5056646;28;20209;-73
2022/09/13 10:17:22;;;;;;;8.37;7.30;;;20.70;99.90;;;;;;5056502;28;20683;-70
2022/09/13 10:20:00;;;;;;;8.07;7.10;;;20.70;99.90;;;;;;5043810;28;20254;-69
2022/09/13 10:22:28;;;;;;;8.23;7.43;;;20.40;99.90;;;;;;5062214;28;20674;-69
2022/09/13 10:24:54;;;;;;;9.50;7.17;;;20.30;99.90;;;;;;5056600;28;20212;-69
2022/09/13 10:27:34;;;;;;;7.70;7.00;;;20.30;99.90;;;;;;5061612;28;20215;-74
2022/09/13 10:30:03;;;;;;;8.37;6.87;;;20.20;99.90;;;;;;5054447;28;20312;-69
2022/09/13 10:32:29;;;;;;;6.80;6.20;;;20.30;99.90;;;;;;5060105;28;20212;-70
2022/09/13 10:35:00;;;;;;;9.87;7.97;;;20.30;99.90;;;;;;5059253;28;20297;-69
2022/09/13 10:37:32;;;;;;;8.60;7.80;;;20.30;99.90;;;;;;5061587;28;20684;-69
2022/09/13 10:40:11;;;;;;;8.77;7.30;;;20.20;99.90;;;;;;5048731;28;20956;-70
2022/09/13 10:42:36;;;;;;;9.57;7.83;;;20.10;99.90;;;;;;5055880;28;20261;-70
2022/09/13 10:45:07;;;;;;;9.47;8.53;;;20.00;99.90;;;;;;5056822;28;20233;-69
2022/09/13 10:47:46;;;;;;;9.63;8.60;;;20.10;99.90;;;;;;5052741;28;20227;-69
2022/09/13 10:50:30;;;;;;;10.40;8.50;;;19.90;99.90;;;;;;5043227;28;20213;-69
2022/09/13 10:52:57;;;;;;;9.37;7.87;;;19.80;99.90;;;;;;5054113;28;20284;-70
2022/09/13 10:55:25;;;;;;;10.17;9.17;;;19.60;99.90;;;;;;5056553;28;20228;-70
2022/09/13 10:58:02;;;;;;;9.87;8.80;;;19.60;99.90;;;;;;5052125;28;20193;-70
2022/09/13 11:00:42;;;;;;;10.10;8.37;;;19.60;99.90;;;;;;5047692;28;20234;-70
2022/09/13 11:03:33;;;;;;;8.80;7.90;;;19.60;99.90;;;;;;5053860;28;20202;-70
2022/09/13 11:06:19;;;;;;;9.60;8.60;;;19.60;99.90;;;;;;5051701;28;20685;-71
2022/09/13 11:08:58;;;;;;;9.17;8.27;;;19.60;99.90;;;;;;5048034;28;20234;-70
2022/09/13 11:11:39;;;;;;;9.33;8.27;;;19.60;99.90;;;;;;5051080;28;20194;-70
2022/09/13 11:14:35;;;;;;;8.73;7.83;;;19.50;99.90;;;;;;5063617;28;20292;-68
2022/09/13 11:17:31;;;;;;;8.50;7.63;;;19.50;99.90;;;;;;5055156;28;20200;-69
2022/09/13 11:20:05;;;;;;;9.57;8.67;;;19.50;99.90;;;;;;5057681;28;20201;-69
2022/09/13 11:22:44;;;;;;;8.93;7.43;;;19.40;99.90;;;;;;5057629;28;20598;-69
2022/09/13 11:25:28;;;;;;;10.13;7.37;;;19.40;99.90;;;;;;5048236;28;20216;-69
2022/09/13 11:27:59;;;;;;;8.37;7.63;;;19.40;99.90;;;;;;5051265;28;20229;-69
2022/09/13 11:30:29;;;;;;;7.23;6.57;;;19.40;99.90;;;;;;5043955;28;20577;-69
2022/09/13 11:33:18;;;;;;;8.60;7.53;;;19.40;99.90;;;;;;5053743;28;20830;-69
2022/09/13 11:36:17;;;;;;;6.97;6.37;;;19.40;99.90;;;;;;5053622;28;20272;-70
2022/09/13 11:39:12;;;;;;;8.47;7.53;;;19.40;99.90;;;;;;5056221;28;20191;-69
2022/09/13 11:42:05;;;;;;;8.77;7.40;;;19.40;99.90;;;;;;5048807;28;20274;-69
2022/09/13 11:44:42;;;;;;;8.77;7.13;;;19.40;99.90;;;;;;5024876;28;20515;-70
2022/09/13 11:47:31;;;;;;;10.70;7.63;;;19.40;99.90;;;;;;5055700;28;20197;-70
2022/09/13 11:50:40;;;;;;;9.90;9.00;;;19.50;99.90;;;;;;5014171;28;20575;-70
2022/09/13 11:53:32;;;;;;;11.13;8.57;;;19.50;99.90;;;;;;4963279;28;20190;-70
2022/09/13 11:56:05;;;;;;;9.90;8.90;;;19.40;99.90;;;;;;4961074;28;20609;-70
2022/09/13 11:58:49;;;;;;;8.93;8.13;;;19.30;99.90;;;;;;5026320;28;20242;-71
2022/09/13 12:01:32;;;;;;;10.20;9.27;;;19.30;99.90;;;;;;5059126;28;20805;-70
2022/09/13 12:04:04;;;;;;;10.17;9.17;;;19.20;99.90;;;;;;5052648;28;20223;-70
2022/09/13 12:06:35;;;;;;;11.57;8.73;;;19.20;99.90;;;;;;5055614;28;20183;-71
2022/09/13 12:09:22;;;;;;;10.87;9.70;;;19.10;99.90;;;;;;5057000;28;20243;-70
2022/09/13 12:11:53;;;;;;;12.10;9.87;;;18.90;99.90;;;;;;5061265;28;20192;-70
2022/09/13 12:14:22;;;;;;;13.50;10.43;;;18.80;99.90;;;;;;5052294;28;20724;-70
2022/09/13 12:16:58;;;;;;;12.90;10.20;;;18.70;99.90;;;;;;5050003;28;20550;-70
2022/09/13 12:19:43;;;;;;;11.80;10.67;;;18.60;99.90;;;;;;5051066;28;20202;-70
2022/09/13 12:22:11;;;;;;;11.70;10.37;;;18.70;99.90;;;;;;5056912;28;20498;-70
2022/09/13 12:24:42;;;;;;;12.33;10.13;;;18.80;99.90;;;;;;5059139;28;20223;-70
2022/09/13 12:27:23;;;;;;;11.77;9.70;;;18.90;99.90;;;;;;5045073;28;20427;-69
2022/09/13 12:29:55;;;;;;;12.27;9.97;;;19.00;99.90;;;;;;5053656;28;20197;-70
2022/09/13 12:32:22;;;;;;;11.50;10.40;;;18.90;99.90;;;;;;5060462;28;20559;-70
2022/09/13 12:35:01;;;;;;;11.37;10.33;;;19.10;99.90;;;;;;5050624;28;20215;-70
2022/09/13 12:37:57;;;;;;;12.27;10.03;;;19.10;99.90;;;;;;5055972;28;20189;-70
2022/09/13 12:40:42;;;;;;;13.17;9.77;;;19.00;99.90;;;;;;5052373;28;20203;-69
2022/09/13 12:43:49;;;;;;;8.40;7.60;;;18.90;99.90;;;;;;5056955;28;20200;-69
2022/09/13 12:46:34;;;;;;;10.53;8.67;;;18.90;99.90;;;;;;5056805;28;20194;-70
2022/09/13 12:49:29;;;;;;;9.87;8.30;;;19.00;99.90;;;;;;5055445;28;20607;-69
2022/09/13 12:52:11;;;;;;;9.83;8.70;;;19.10;99.90;;;;;;5046081;28;20665;-69
2022/09/13 12:55:07;;;;;;;15.00;8.60;;;19.10;99.90;;;;;;5042367;28;20202;-70
2022/09/13 12:57:44;;;;;;;11.83;9.47;;;19.10;99.90;;;;;;5059669;28;20189;-70
2022/09/13 13:00:23;;;;;;;10.67;9.57;;;19.20;99.90;;;;;;5052317;28;20231;-69
2022/09/13 13:03:12;;;;;;;11.67;10.47;;;19.30;99.90;;;;;;5050975;28;20278;-69
2022/09/13 13:05:43;;;;;;;10.47;8.90;;;19.30;99.90;;;;;;5054631;28;20205;-69
2022/09/13 13:08:20;;;;;;;13.03;10.20;;;19.30;99.90;;;;;;5052767;28;20203;-70
2022/09/13 13:11:06;;;;;;;11.23;9.60;;;19.20;99.90;;;;;;5054699;28;20232;-69
2022/09/13 13:13:44;;;;;;;11.73;8.93;;;19.10;99.90;;;;;;5050873;28;20203;-69
2022/09/13 13:16:26;;;;;;;13.10;11.17;;;19.00;99.90;;;;;;5055258;28;20225;-69
2022/09/13 13:18:53;;;;;;;11.70;9.23;;;18.90;99.90;;;;;;5049274;28;20200;-69